Time;durP1;ratioP1;P1;durP2;ratioP2;P2;SDS_P1;SDS_P2;PMS_P1;PMS_P2;Temp;Humidity;BMP_temperature;BMP_pressure;BME280_temperature;BME280_humidity;BME280_pressure;Samples;Min_cycle;Max_cycle;Signal;HPM_P1;HPM_P2
2022/12/13 00:00:21;;;;;;;4.25;2.58;;;22.10;39.80;;;20.14;44.11;95216.59;4990987;28;20046;-60
2022/12/13 00:02:47;;;;;;;6.13;2.50;;;22.10;39.40;;;20.14;43.78;95210.44;4982139;28;20095;-61
2022/12/13 00:05:13;;;;;;;10.93;2.70;;;22.10;39.80;;;20.13;43.47;95212.31;5015225;28;20068;-61
2022/12/13 00:07:38;;;;;;;4.93;2.15;;;22.10;39.60;;;20.13;43.42;95209.63;4997169;28;20544;-61
2022/12/13 00:10:06;;;;;;;5.47;2.60;;;22.10;39.50;;;20.14;43.61;95205.09;4996291;28;20037;-60
2022/12/13 00:12:32;;;;;;;6.53;2.38;;;22.10;39.80;;;20.13;43.19;95198.94;4997507;28;20025;-61
2022/12/13 00:14:57;;;;;;;3.80;2.40;;;22.10;39.50;;;20.13;43.27;95198.94;4997435;28;20504;-61
2022/12/13 00:17:23;;;;;;;5.88;2.35;;;22.10;39.50;;;20.12;43.62;95197.34;4997368;28;20037;-61
2022/12/13 00:19:49;;;;;;;4.88;2.50;;;22.10;39.60;;;20.12;43.10;95192.00;5013241;28;20057;-61
2022/12/13 00:22:18;;;;;;;4.25;2.38;;;22.10;39.80;;;20.11;43.06;95195.75;5013182;28;20053;-61
2022/12/13 00:24:43;;;;;;;8.98;2.63;;;22.10;39.40;;;20.11;43.61;95195.75;5012866;28;20075;-61
2022/12/13 00:27:09;;;;;;;5.72;2.30;;;22.10;39.90;;;20.11;44.12;95201.09;4997224;28;20056;-61
2022/12/13 00:29:35;;;;;;;8.13;2.85;;;22.10;39.70;;;20.11;43.32;95194.97;4996648;28;20033;-61
2022/12/13 00:32:01;;;;;;;5.13;2.72;;;22.10;39.80;;;20.09;44.04;95189.91;5012569;28;20053;-61
2022/12/13 00:34:27;;;;;;;6.13;2.53;;;22.10;39.80;;;20.10;43.07;95182.69;4985737;28;20118;-61
2022/12/13 00:36:53;;;;;;;8.70;3.00;;;22.10;39.50;;;20.10;43.16;95188.03;4996538;28;20041;-61
2022/12/13 00:39:19;;;;;;;6.10;3.08;;;22.10;39.80;;;20.08;44.35;95172.28;4981248;28;20034;-61
2022/12/13 00:41:45;;;;;;;8.18;3.22;;;22.10;39.70;;;20.10;43.12;95177.34;5009515;28;20045;-61
2022/12/13 00:44:12;;;;;;;10.93;3.78;;;22.10;39.80;;;20.09;43.40;95175.75;5009545;28;20034;-61
2022/12/13 00:46:38;;;;;;;7.97;2.70;;;22.10;39.80;;;20.09;42.81;95179.22;5009437;28;20022;-61
2022/12/13 00:49:04;;;;;;;7.75;2.78;;;22.10;39.70;;;20.07;43.46;95176.00;4993280;28;20136;-61
2022/12/13 00:51:31;;;;;;;7.18;2.92;;;22.00;39.80;;;20.08;43.05;95179.47;5009496;28;20025;-61
2022/12/13 00:53:57;;;;;;;5.05;2.72;;;22.10;39.50;;;20.08;43.39;95182.16;5008851;28;20112;-61
2022/12/13 00:56:25;;;;;;;6.50;3.05;;;22.10;39.60;;;20.07;43.94;95178.69;5009747;28;20084;-61
2022/12/13 00:58:51;;;;;;;5.25;3.10;;;22.10;39.70;;;20.07;43.39;95178.69;5009276;28;20036;-61
2022/12/13 01:01:19;;;;;;;5.00;2.70;;;22.10;39.70;;;20.07;43.90;95177.88;4993041;28;20080;-61
2022/12/13 01:03:45;;;;;;;4.93;2.80;;;22.10;39.50;;;20.06;44.06;95176.28;5020144;28;20032;-61
2022/12/13 01:06:13;;;;;;;8.13;2.92;;;22.10;39.50;;;20.06;42.98;95177.09;4995978;28;20029;-61
2022/12/13 01:08:39;;;;;;;5.75;2.47;;;22.10;39.60;;;20.06;43.22;95179.75;4996093;28;20052;-61
2022/12/13 01:11:05;;;;;;;6.60;2.85;;;22.00;39.50;;;20.06;43.48;95181.63;5012596;28;20065;-61
2022/12/13 01:13:31;;;;;;;7.55;2.92;;;22.10;39.40;;;20.06;43.14;95173.63;4996308;28;20041;-60
2022/12/13 01:15:56;;;;;;;6.00;2.97;;;22.10;39.90;;;20.05;43.13;95170.16;4995626;28;20029;-61
2022/12/13 01:18:22;;;;;;;6.00;3.10;;;22.10;39.60;;;20.04;43.54;95173.88;5012541;28;20053;-61
2022/12/13 01:21:11;;;;;;;6.13;2.75;;;22.00;39.70;;;20.04;43.26;95171.22;4995633;28;20045;-61
2022/12/13 01:23:37;;;;;;;4.25;2.50;;;22.00;39.80;;;20.02;43.82;95176.03;4965334;28;20025;-60
2022/12/13 01:26:08;;;;;;;4.90;2.70;;;22.00;39.70;;;20.04;43.64;95167.75;5011743;28;20120;-61
2022/12/13 01:28:34;;;;;;;5.13;2.80;;;22.10;39.50;;;20.02;43.82;95169.91;4996332;28;20029;-61
2022/12/13 01:31:03;;;;;;;6.47;2.80;;;22.00;39.70;;;20.03;43.08;95166.97;5012130;28;20057;-60
2022/12/13 01:33:29;;;;;;;5.30;2.60;;;22.00;39.90;;;20.02;43.44;95160.03;4996222;28;20404;-61
2022/12/13 01:35:54;;;;;;;6.93;2.92;;;22.00;39.70;;;20.02;43.47;95160.03;4979977;28;20027;-63
2022/12/13 01:38:20;;;;;;;4.28;2.55;;;22.00;39.70;;;20.02;43.88;95164.56;4972794;28;20460;-61
2022/12/13 01:40:56;;;;;;;6.13;2.95;;;22.10;39.30;;;20.02;43.36;95164.56;4976176;28;20022;-61
2022/12/13 01:43:27;;;;;;;3.63;2.47;;;22.00;39.70;;;20.01;43.40;95155.75;4993879;28;20093;-60
2022/12/13 01:45:53;;;;;;;6.63;2.83;;;22.00;39.50;;;20.00;43.89;95156.03;4977085;28;20048;-61
2022/12/13 01:48:24;;;;;;;6.65;2.80;;;22.00;39.80;;;20.00;43.80;95146.16;4959953;28;20057;-61
2022/12/13 01:50:51;;;;;;;3.58;2.55;;;22.00;39.60;;;19.99;43.05;95144.56;4976594;28;20532;-61
2022/12/13 01:53:20;;;;;;;4.13;2.50;;;22.00;39.60;;;20.00;42.58;95140.00;4993061;28;20044;-60
2022/12/13 01:55:49;;;;;;;5.38;2.70;;;22.00;39.50;;;19.98;43.00;95137.59;4976353;28;20034;-61
2022/12/13 01:58:14;;;;;;;4.57;2.67;;;22.00;39.60;;;19.98;42.96;95134.94;4992462;28;20042;-61
2022/12/13 02:00:40;;;;;;;4.18;2.30;;;22.00;39.40;;;19.98;43.71;95137.59;4975897;28;20050;-61
2022/12/13 02:03:06;;;;;;;5.20;2.85;;;22.00;39.50;;;19.97;42.86;95130.69;4998392;28;20049;-60
2022/12/13 02:05:39;;;;;;;3.70;2.60;;;22.00;39.60;;;19.97;42.72;95125.34;5012133;28;20116;-61
2022/12/13 02:08:05;;;;;;;4.65;2.70;;;22.00;39.30;;;19.96;42.81;95134.41;4995604;28;20037;-61
2022/12/13 02:10:31;;;;;;;5.40;2.92;;;21.90;39.10;;;19.97;43.16;95130.69;5011742;28;20076;-61
2022/12/13 02:12:57;;;;;;;4.93;2.67;;;22.00;39.10;;;19.95;42.60;95127.47;5011416;28;20176;-61
2022/12/13 02:15:23;;;;;;;5.28;2.55;;;22.00;39.20;;;19.96;42.99;95129.06;5029554;28;20520;-61
2022/12/13 02:18:06;;;;;;;3.70;2.47;;;22.00;39.20;;;19.96;42.81;95123.75;4995338;28;20064;-61
2022/12/13 02:20:59;;;;;;;4.18;3.10;;;22.00;39.40;;;19.95;42.91;95122.16;4996740;28;20026;-61
2022/12/13 02:23:52;;;;;;;3.70;2.65;;;21.90;39.20;;;19.93;42.82;95116.28;5011976;28;20492;-61
2022/12/13 02:26:39;;;;;;;3.20;2.47;;;22.00;39.60;;;19.91;42.54;95115.72;5011448;28;20033;-60
2022/12/13 02:29:23;;;;;;;4.35;2.65;;;21.90;39.50;;;19.91;42.16;95104.25;5029656;28;20030;-60
2022/12/13 02:32:15;;;;;;;4.13;2.40;;;21.90;39.30;;;19.89;42.97;95101.84;4995261;28;20505;-61
2022/12/13 02:35:19;;;;;;;3.75;2.20;;;21.90;39.40;;;19.89;42.97;95104.53;5012915;28;20105;-61
2022/12/13 02:37:50;;;;;;;4.43;2.58;;;21.90;39.40;;;19.86;43.11;95099.72;4978105;28;20657;-61
2022/12/13 02:40:44;;;;;;;3.75;2.50;;;21.90;39.50;;;19.87;42.65;95098.66;5026335;28;20722;-61
2022/12/13 02:43:26;;;;;;;4.20;2.55;;;21.80;39.40;;;19.84;42.39;95089.34;4999018;28;20378;-61
2022/12/13 02:45:58;;;;;;;3.90;2.53;;;21.90;39.30;;;19.84;43.00;95093.88;4983775;28;20103;-61
2022/12/13 02:48:30;;;;;;;3.75;2.40;;;21.80;39.40;;;19.82;42.75;95091.47;4983333;28;20136;-60
2022/12/13 02:50:56;;;;;;;3.88;2.25;;;21.90;39.50;;;19.82;43.52;95090.69;4982806;28;20033;-60
2022/12/13 02:53:22;;;;;;;3.45;2.35;;;21.80;39.50;;;19.82;43.32;95088.00;4982733;28;20064;-61
2022/12/13 02:55:48;;;;;;;4.50;2.60;;;21.80;39.40;;;19.81;43.18;95073.06;4998339;28;20033;-61
2022/12/13 02:58:17;;;;;;;3.75;2.40;;;21.80;39.40;;;19.82;43.28;95080.81;5014811;28;20041;-61
2022/12/13 03:01:13;;;;;;;4.40;2.57;;;21.80;39.30;;;19.82;43.15;95083.47;4998453;28;20125;-61
2022/12/13 03:04:02;;;;;;;3.95;2.28;;;21.80;39.20;;;19.82;43.95;95077.34;5017049;28;20029;-61
2022/12/13 03:06:57;;;;;;;2.93;2.17;;;21.90;39.60;;;19.82;42.84;95074.66;5001072;28;20489;-60
2022/12/13 03:09:59;;;;;;;2.63;2.25;;;21.80;39.40;;;19.86;43.22;95070.38;5017300;28;20088;-61
2022/12/13 03:15:42;;;;;;;3.35;2.50;;;21.90;39.30;;;19.92;43.01;95061.31;5018324;28;20520;-61
2022/12/13 03:18:16;;;;;;;3.38;2.10;;;21.90;39.00;;;19.95;42.65;95055.41;5014244;28;20033;-61
2022/12/13 03:20:48;;;;;;;3.55;2.63;;;22.00;39.10;;;20.00;43.43;95060.72;4998032;28;20444;-61
2022/12/13 03:23:14;;;;;;;4.68;2.17;;;22.00;39.00;;;20.02;43.33;95052.44;4981962;28;20475;-60
2022/12/13 03:25:40;;;;;;;3.90;2.75;;;22.00;39.00;;;20.06;42.73;95054.28;4996658;28;20115;-61
2022/12/13 03:28:06;;;;;;;4.13;2.42;;;22.00;39.10;;;20.08;43.03;95056.69;4997950;28;20065;-61
2022/12/13 03:30:32;;;;;;;3.47;2.25;;;22.00;39.00;;;20.09;42.95;95058.28;5014130;28;20072;-61
2022/12/13 03:32:58;;;;;;;4.45;2.63;;;22.00;39.10;;;20.11;43.06;95064.94;4996885;28;20038;-60
2022/12/13 03:35:23;;;;;;;4.22;2.45;;;22.00;39.10;;;20.13;42.64;95065.47;4973520;28;20050;-61
2022/12/13 03:37:49;;;;;;;3.47;2.50;;;22.10;39.20;;;20.13;42.22;95064.66;4994170;28;20583;-61
2022/12/13 03:40:16;;;;;;;5.63;2.40;;;22.10;39.10;;;20.15;42.83;95065.22;4961512;28;20551;-61
2022/12/13 03:42:42;;;;;;;4.30;2.88;;;22.00;39.00;;;20.15;42.55;95068.69;4978368;28;20560;-61
2022/12/13 03:45:08;;;;;;;3.20;2.35;;;22.00;39.20;;;20.16;42.89;95064.94;4977483;28;20053;-61
2022/12/13 03:47:34;;;;;;;5.90;2.42;;;22.10;39.30;;;20.17;42.44;95061.19;4978128;28;20109;-60
2022/12/13 03:49:59;;;;;;;5.80;2.25;;;22.10;39.20;;;20.17;42.96;95060.41;5011309;28;20065;-60
2022/12/13 03:52:25;;;;;;;4.93;2.53;;;22.00;39.40;;;20.17;42.98;95053.19;4974865;28;20038;-61
2022/12/13 03:54:51;;;;;;;5.57;2.28;;;22.10;39.40;;;20.17;42.83;95055.84;4977583;28;20038;-60
2022/12/13 03:57:17;;;;;;;9.88;2.45;;;22.00;39.60;;;20.16;43.16;95048.13;4977786;28;20521;-60
2022/12/13 03:59:42;;;;;;;5.40;2.40;;;22.10;39.70;;;20.21;44.27;95045.41;4992749;28;20054;-61
2022/12/13 04:02:08;;;;;;;3.75;2.55;;;22.10;40.30;;;20.21;43.75;95044.63;5010996;28;20041;-61
2022/12/13 04:04:34;;;;;;;3.22;2.20;;;22.10;40.60;;;20.22;43.84;95047.00;4978797;28;20049;-62
2022/12/13 04:07:00;;;;;;;6.63;2.65;;;22.10;40.70;;;20.23;43.65;95047.81;5031391;28;20057;-62
2022/12/13 04:09:25;;;;;;;6.38;2.40;;;22.10;40.90;;;20.25;44.55;95048.34;4997301;28;20483;-61
2022/12/13 04:14:35;;;;;;;4.95;2.33;;;22.10;40.90;;;20.23;44.49;95045.13;5015674;28;20558;-62
2022/12/13 04:17:01;;;;;;;3.97;2.25;;;22.10;40.70;;;20.24;44.01;95044.06;4982221;28;20061;-65
2022/12/13 04:19:27;;;;;;;3.58;2.42;;;22.10;40.70;;;20.23;44.75;95048.63;4999710;28;20108;-62
2022/12/13 04:21:53;;;;;;;5.07;3.03;;;22.10;40.50;;;20.24;44.74;95046.75;4990223;28;20089;-61
2022/12/13 04:24:20;;;;;;;12.02;2.67;;;22.10;40.70;;;20.25;44.61;95059.00;4989938;28;20027;-61
2022/12/13 04:26:45;;;;;;;8.40;2.35;;;22.10;41.00;;;20.26;44.43;95052.59;5001064;23;20038;-60
2022/12/13 04:29:11;;;;;;;5.72;2.70;;;22.10;40.90;;;20.25;44.71;95046.47;4990089;28;20156;-61
2022/12/13 04:31:37;;;;;;;8.77;3.10;;;22.10;41.10;;;20.28;44.99;95050.44;5007290;28;20124;-60
2022/12/13 04:34:03;;;;;;;21.75;4.32;;;22.10;41.80;;;20.28;47.40;95071.81;5002100;28;20077;-59
2022/12/13 04:36:29;;;;;;;24.00;5.60;;;22.10;43.50;;;20.29;50.37;95079.53;4993276;28;20133;-62
2022/12/13 04:38:55;;;;;;;23.55;6.35;;;22.20;46.70;;;20.34;54.71;95076.03;4985650;28;20037;-59
2022/12/13 04:41:20;;;;;;;21.23;6.10;;;22.20;50.00;;;20.37;57.55;95064.84;5010401;28;20061;-60
2022/12/13 04:43:53;;;;;;;49.75;10.07;;;22.30;50.50;;;20.46;79.37;95069.34;4993266;28;20079;-61
2022/12/13 04:46:19;;;;;;;57.03;8.85;;;22.40;63.50;;;20.56;67.48;95063.13;4992979;28;20030;-60
2022/12/13 04:48:45;;;;;;;21.48;5.32;;;22.50;61.60;;;20.61;67.46;95063.13;5010487;28;20520;-60
2022/12/13 04:51:11;;;;;;;21.35;4.72;;;22.50;59.20;;;20.62;64.19;95061.25;5010410;28;20125;-59
2022/12/13 04:53:37;;;;;;;23.17;4.35;;;22.50;55.20;;;20.64;63.13;95059.91;5009191;28;20121;-60
2022/12/13 04:56:04;;;;;;;21.30;4.13;;;22.50;53.10;;;20.64;61.87;95059.09;5008164;28;20065;-59
2022/12/13 04:58:30;;;;;;;20.13;4.00;;;22.50;51.70;;;20.63;59.50;95057.50;5008217;28;20390;-60
2022/12/13 05:00:56;;;;;;;18.63;3.97;;;22.50;50.40;;;20.61;58.16;95052.44;5009306;28;20033;-60
2022/12/13 05:03:22;;;;;;;28.75;4.00;;;22.50;49.90;;;20.59;57.25;95051.88;5001994;28;20034;-60
2022/12/13 05:05:47;;;;;;;25.80;4.60;;;22.50;49.10;;;20.59;56.44;95049.22;4997700;28;20084;-60
2022/12/13 05:08:13;;;;;;;16.05;3.83;;;22.50;48.60;;;20.57;56.04;95043.34;4990628;28;20038;-60
2022/12/13 05:10:39;;;;;;;15.73;3.85;;;22.50;48.30;;;20.55;55.62;95040.16;4990535;28;20060;-60
2022/12/13 05:13:05;;;;;;;16.88;3.83;;;22.50;48.00;;;20.54;55.51;95041.25;4991050;28;20121;-60
2022/12/13 05:15:31;;;;;;;13.93;3.92;;;22.50;48.20;;;20.52;55.29;95046.06;4990603;28;20038;-60
2022/12/13 05:18:04;;;;;;;12.90;4.13;;;22.40;47.20;;;20.50;53.98;95037.53;4990919;28;20118;-60
2022/12/13 05:20:30;;;;;;;18.02;4.13;;;22.50;46.80;;;20.48;54.20;95040.47;4972822;28;20054;-61
2022/12/13 05:22:56;;;;;;;13.20;3.97;;;22.40;46.30;;;20.46;53.21;95039.16;4989643;28;20053;-60
2022/12/13 05:25:23;;;;;;;11.93;3.35;;;22.40;46.30;;;20.43;52.95;95035.19;4990631;28;20100;-60
2022/12/13 05:27:49;;;;;;;10.88;3.58;;;22.40;45.70;;;20.41;52.65;95023.19;4989727;28;20038;-59
2022/12/13 05:30:15;;;;;;;10.52;3.33;;;22.40;45.60;;;20.39;51.83;95022.63;4988734;28;20119;-60
2022/12/13 05:32:41;;;;;;;13.18;3.55;;;22.40;45.70;;;20.37;51.78;95027.44;4992525;28;20093;-60
2022/12/13 05:35:07;;;;;;;16.98;4.10;;;22.30;45.30;;;20.35;51.85;95024.22;5002084;28;20066;-61
2022/12/13 05:37:32;;;;;;;9.52;3.70;;;22.40;44.90;;;20.33;51.24;95018.38;4999200;28;20046;-60
2022/12/13 05:39:58;;;;;;;8.35;3.15;;;22.30;44.80;;;20.29;50.93;95020.00;4988642;28;20030;-60
2022/12/13 05:42:24;;;;;;;9.27;4.03;;;22.30;44.70;;;20.30;51.03;95016.25;4989173;28;20050;-59
2022/12/13 05:44:51;;;;;;;10.02;3.65;;;22.30;44.50;;;20.29;51.03;95014.66;4989406;28;20117;-60
2022/12/13 05:47:17;;;;;;;7.97;3.47;;;22.20;44.10;;;20.23;50.33;95013.09;4972912;28;20065;-60
2022/12/13 05:49:43;;;;;;;8.18;3.20;;;22.20;44.00;;;20.23;50.28;95013.09;4988950;28;20058;-60
2022/12/13 05:52:21;;;;;;;7.57;3.30;;;22.20;44.20;;;20.25;49.33;95013.63;4972839;28;20471;-60
2022/12/13 05:54:47;;;;;;;8.60;3.50;;;22.20;43.60;;;20.19;49.22;95010.97;4989289;28;20434;-60
2022/12/13 05:57:13;;;;;;;6.63;3.33;;;22.20;43.70;;;20.19;50.01;95015.53;4973126;28;20041;-60
2022/12/13 05:59:38;;;;;;;9.50;3.70;;;22.20;44.00;;;20.17;49.03;95004.31;4990309;28;20031;-60
2022/12/13 06:02:04;;;;;;;10.85;3.90;;;22.20;43.80;;;20.17;49.50;95017.69;4990100;28;20474;-60
2022/12/13 06:04:30;;;;;;;8.23;3.83;;;22.20;43.60;;;20.15;49.46;95015.28;5000123;28;20585;-60
2022/12/13 06:06:56;;;;;;;7.50;3.42;;;22.10;43.30;;;20.13;48.55;95006.72;5009865;28;20068;-60
2022/12/13 06:09:21;;;;;;;12.95;4.10;;;22.10;43.50;;;20.11;49.10;95008.88;5010933;28;20069;-60
2022/12/13 06:11:48;;;;;;;6.38;3.33;;;22.10;43.20;;;20.12;48.24;95004.34;5012051;28;20109;-60
2022/12/13 06:14:14;;;;;;;8.43;3.63;;;22.10;43.00;;;20.10;47.98;94999.28;5013076;28;20054;-60
2022/12/13 06:16:39;;;;;;;9.23;3.15;;;22.10;43.10;;;20.08;49.00;95014.75;5011886;28;20515;-60
2022/12/13 06:19:05;;;;;;;7.38;3.83;;;22.10;43.10;;;20.08;48.89;95014.75;5012076;28;20058;-60
2022/12/13 06:21:32;;;;;;;6.57;3.65;;;22.10;43.20;;;20.07;48.89;95023.84;5013031;28;20045;-60
2022/12/13 06:23:57;;;;;;;7.57;3.55;;;22.10;43.20;;;20.07;48.18;95025.72;5012835;28;20030;-60
2022/12/13 06:26:23;;;;;;;5.90;3.35;;;22.10;43.20;;;20.07;48.53;95020.38;5011489;28;20077;-61
2022/12/13 06:28:49;;;;;;;6.97;4.07;;;22.10;43.10;;;20.05;47.79;95030.53;5013210;28;20065;-60
2022/12/13 06:31:15;;;;;;;8.02;3.70;;;22.10;43.10;;;20.04;48.59;95029.75;5012954;28;20118;-60
2022/12/13 06:33:40;;;;;;;8.40;3.50;;;22.10;42.90;;;20.03;48.11;95030.81;5004708;28;20105;-60
2022/12/13 06:36:07;;;;;;;6.00;3.22;;;22.00;42.90;;;20.03;48.66;95032.69;5009962;28;20132;-60
2022/12/13 06:38:32;;;;;;;5.55;3.50;;;22.00;42.80;;;20.01;47.62;95030.28;5013561;28;20057;-61
2022/12/13 06:41:14;;;;;;;5.18;3.05;;;22.00;42.80;;;20.01;46.93;95038.31;5011928;28;20396;-60
2022/12/13 06:43:46;;;;;;;4.82;3.55;;;22.00;42.70;;;19.99;46.94;95037.78;5013023;28;20030;-60
2022/12/13 06:46:12;;;;;;;5.55;3.75;;;22.00;42.70;;;19.99;47.88;95032.44;5011378;28;20509;-60
2022/12/13 06:48:41;;;;;;;6.13;3.30;;;22.00;42.30;;;19.98;47.42;95035.38;5011370;28;20057;-60
2022/12/13 06:51:07;;;;;;;4.88;3.10;;;22.00;42.30;;;19.97;47.72;95034.59;5012721;28;20034;-60
2022/12/13 06:53:36;;;;;;;7.40;3.42;;;22.00;42.50;;;19.97;47.08;95029.25;5011334;28;20030;-60
2022/12/13 06:56:07;;;;;;;7.55;3.70;;;22.00;42.50;;;19.96;47.05;95022.31;5010914;28;20041;-60
2022/12/13 06:58:33;;;;;;;4.65;2.97;;;22.00;42.10;;;19.96;47.32;95021.53;5011494;28;20132;-60
2022/12/13 07:01:13;;;;;;;6.65;3.60;;;22.00;42.30;;;19.96;47.35;95026.84;5011159;28;20030;-60
2022/12/13 07:03:39;;;;;;;6.70;3.58;;;22.00;42.30;;;19.94;47.18;95027.13;5010273;28;20022;-60
2022/12/13 07:06:08;;;;;;;4.80;3.10;;;21.90;42.20;;;19.92;47.61;95031.94;5005030;28;20041;-61
2022/12/13 07:08:34;;;;;;;5.78;3.20;;;21.90;42.10;;;19.93;47.01;95043.41;4994951;28;20386;-60
2022/12/13 07:11:01;;;;;;;5.65;3.45;;;21.90;42.00;;;19.92;46.65;95045.28;5011091;28;20042;-60
2022/12/13 07:13:27;;;;;;;5.35;3.58;;;21.90;41.70;;;19.91;46.26;95041.00;4994873;28;20052;-60
2022/12/13 07:15:53;;;;;;;7.43;3.90;;;21.90;42.00;;;19.91;45.82;95035.66;5012356;28;20394;-60
2022/12/13 07:18:18;;;;;;;5.47;3.20;;;21.90;42.00;;;19.89;46.73;95033.25;5010425;28;20117;-60
2022/12/13 07:20:44;;;;;;;6.25;3.63;;;21.90;41.90;;;19.88;45.74;95030.88;5009493;28;20571;-60
2022/12/13 07:23:10;;;;;;;5.18;3.40;;;21.90;41.70;;;19.90;46.05;95036.72;5011059;28;20409;-60
2022/12/13 07:25:36;;;;;;;7.20;3.60;;;21.90;41.60;;;19.89;46.01;95032.47;5010534;28;20104;-60
2022/12/13 07:28:04;;;;;;;5.07;3.22;;;21.90;41.80;;;19.89;46.71;95043.13;5010595;28;20160;-60
2022/12/13 07:30:33;;;;;;;5.20;3.47;;;21.80;41.80;;;19.88;46.87;95044.22;5010539;28;20516;-60
2022/12/13 07:33:01;;;;;;;5.57;3.55;;;21.90;41.70;;;19.88;45.77;95039.69;5005942;28;20547;-60
2022/12/13 07:35:27;;;;;;;5.40;3.47;;;21.80;41.60;;;19.89;46.32;95040.47;4983674;28;20049;-60
2022/12/13 07:37:53;;;;;;;4.82;3.50;;;21.80;41.70;;;19.87;46.03;95031.94;5007311;28;20031;-60
2022/12/13 07:40:18;;;;;;;4.80;3.42;;;21.90;41.50;;;19.88;45.73;95030.88;4990220;28;20030;-60
2022/12/13 07:42:54;;;;;;;4.40;3.20;;;21.90;41.60;;;19.88;45.73;95028.19;4992143;28;20413;-60
2022/12/13 07:45:20;;;;;;;4.95;3.38;;;21.90;41.50;;;19.87;45.06;95029.28;4990801;28;20098;-60
2022/12/13 07:47:46;;;;;;;6.22;3.60;;;21.80;41.40;;;19.85;45.39;95034.09;4992071;28;20115;-60
2022/12/13 07:50:12;;;;;;;5.18;3.38;;;21.80;41.40;;;19.87;45.35;95035.41;4991582;28;20121;-60
2022/12/13 07:52:38;;;;;;;6.25;3.38;;;21.80;41.40;;;19.86;45.78;95041.03;4990548;28;20030;-60
2022/12/13 07:55:06;;;;;;;5.55;3.47;;;21.80;41.40;;;19.87;46.12;95047.94;4974659;28;20417;-60
2022/12/13 07:57:32;;;;;;;3.88;3.13;;;21.80;41.20;;;19.87;45.68;95050.63;4990541;28;20046;-60
2022/12/13 07:59:57;;;;;;;5.75;3.13;;;21.80;41.30;;;19.86;45.38;95049.81;4991788;28;20034;-60
2022/12/13 08:02:23;;;;;;;5.28;3.42;;;21.80;41.20;;;19.87;45.90;95045.28;4991649;28;20631;-60
2022/12/13 08:04:49;;;;;;;5.20;3.20;;;21.80;41.00;;;19.86;45.72;95039.16;4998708;28;20117;-60
2022/12/13 08:07:15;;;;;;;4.13;3.25;;;21.80;41.10;;;19.86;46.02;95046.34;4991794;28;20037;-60
2022/12/13 08:09:41;;;;;;;6.05;3.70;;;21.80;41.10;;;19.87;45.64;95043.41;4991444;28;20042;-60
2022/12/13 08:12:06;;;;;;;4.28;3.15;;;21.80;41.20;;;19.87;44.55;95045.28;4991301;28;20410;-60
2022/12/13 08:14:32;;;;;;;5.10;3.20;;;21.80;41.10;;;19.88;45.32;95041.53;4991480;28;20405;-60
2022/12/13 08:16:58;;;;;;;5.90;3.13;;;21.80;41.20;;;19.88;45.33;95034.34;4974047;28;20053;-60
2022/12/13 08:19:24;;;;;;;4.72;3.00;;;21.80;41.00;;;19.90;44.84;95036.72;4991439;28;20046;-61
2022/12/13 08:21:52;;;;;;;5.78;3.40;;;21.80;41.00;;;19.90;45.37;95034.06;4973994;28;20102;-60
2022/12/13 08:24:19;;;;;;;4.93;3.45;;;21.80;41.00;;;19.91;44.93;95038.31;4989769;28;20188;-60
2022/12/13 08:26:44;;;;;;;5.75;3.65;;;21.80;40.90;;;19.89;45.03;95035.13;4973882;28;20037;-60
2022/12/13 08:29:14;;;;;;;4.95;3.20;;;21.80;40.80;;;19.94;44.91;95037.81;4990160;28;20117;-60
2022/12/13 08:31:39;;;;;;;4.85;3.38;;;21.90;40.60;;;19.94;44.87;95035.13;4973341;28;20474;-61
2022/12/13 08:34:05;;;;;;;4.55;3.22;;;21.80;40.60;;;19.94;44.12;95035.13;4999885;28;20073;-60
2022/12/13 08:36:31;;;;;;;4.82;3.40;;;21.80;40.60;;;19.96;44.27;95037.53;5005561;28;20057;-59
2022/12/13 08:38:57;;;;;;;4.85;3.63;;;21.80;40.80;;;19.97;44.42;95036.47;4986026;28;20069;-60
2022/12/13 08:41:23;;;;;;;4.50;3.30;;;21.80;40.70;;;19.97;44.36;95039.94;5008967;28;20120;-61
2022/12/13 08:43:49;;;;;;;4.53;3.00;;;21.90;40.60;;;20.00;44.11;95046.59;5009468;28;20069;-61
2022/12/13 08:46:14;;;;;;;4.05;3.17;;;21.90;40.70;;;20.00;44.27;95055.38;5009902;28;20030;-60
2022/12/13 08:48:40;;;;;;;5.70;3.30;;;21.90;40.60;;;20.01;43.61;95054.31;5008972;28;20030;-60
2022/12/13 08:51:08;;;;;;;4.22;3.30;;;21.90;40.70;;;19.99;44.45;95051.13;5025421;28;20045;-60
2022/12/13 08:53:34;;;;;;;4.80;3.30;;;21.80;40.40;;;20.00;43.61;95059.94;4992736;28;20559;-60
2022/12/13 08:56:06;;;;;;;5.15;3.03;;;21.80;40.50;;;19.99;43.41;95059.13;5009799;28;20038;-60
2022/12/13 08:58:31;;;;;;;3.92;2.95;;;21.80;40.40;;;20.00;44.08;95055.38;4992792;28;20026;-60
2022/12/13 09:00:57;;;;;;;4.25;3.10;;;21.90;40.30;;;20.00;44.23;95066.06;5010176;28;20041;-60
2022/12/13 09:03:23;;;;;;;4.43;3.30;;;21.80;40.40;;;20.00;43.14;95065.28;5008677;28;20050;-60
2022/12/13 09:05:49;;;;;;;4.72;3.35;;;21.90;40.10;;;19.97;43.36;95053.28;5000777;28;20038;-60
2022/12/13 09:08:16;;;;;;;5.13;3.65;;;21.90;40.20;;;20.01;43.28;95059.66;4992043;28;20034;-60
2022/12/13 09:10:42;;;;;;;5.28;3.33;;;21.90;40.10;;;20.01;43.78;95056.19;5008500;28;20026;-60
2022/12/13 09:13:08;;;;;;;4.75;3.17;;;21.90;40.10;;;20.02;43.31;95053.25;4992614;28;20045;-60
2022/12/13 09:15:37;;;;;;;3.90;3.03;;;21.90;40.20;;;20.02;43.89;95055.13;5009811;28;20038;-60
2022/12/13 09:18:04;;;;;;;4.50;3.30;;;21.90;40.10;;;19.99;43.64;95053.00;5009454;28;20030;-60
2022/12/13 09:20:29;;;;;;;4.07;3.00;;;21.90;40.00;;;20.03;43.36;95068.19;5008328;28;20026;-60
2022/12/13 09:22:55;;;;;;;4.03;3.00;;;21.90;40.00;;;20.02;43.39;95061.25;5009838;28;20563;-60
2022/12/13 09:25:22;;;;;;;4.75;2.95;;;21.90;40.00;;;20.03;43.43;95056.72;5008312;28;20097;-60
2022/12/13 09:27:47;;;;;;;4.68;3.22;;;21.90;39.60;;;20.03;42.67;95048.69;5008766;28;20056;-60
2022/12/13 09:30:14;;;;;;;3.95;3.08;;;21.90;40.10;;;20.05;42.84;95046.56;5007771;28;20081;-60
2022/12/13 09:32:40;;;;;;;4.03;3.10;;;21.80;40.10;;;20.02;43.47;95034.56;5009496;28;20034;-60
2022/12/13 09:35:06;;;;;;;3.78;3.33;;;21.90;40.00;;;20.03;42.62;95032.69;5000315;28;20558;-60
2022/12/13 09:37:33;;;;;;;4.50;3.03;;;21.90;39.60;;;20.05;42.61;95035.88;4998653;28;20525;-60
2022/12/13 09:39:59;;;;;;;4.32;3.15;;;21.90;39.50;;;20.04;42.88;95028.94;4988381;28;20121;-60
2022/12/13 09:42:29;;;;;;;3.88;3.10;;;21.80;39.80;;;20.05;43.32;95030.53;4989053;28;20648;-60
2022/12/13 09:45:00;;;;;;;4.10;3.28;;;21.80;39.70;;;20.06;43.27;95032.94;4960542;28;20034;-60
2022/12/13 09:47:42;;;;;;;4.40;3.25;;;21.90;39.80;;;20.07;42.70;95034.53;4976528;28;20121;-60
2022/12/13 09:50:13;;;;;;;4.22;3.13;;;22.00;39.90;;;20.08;42.82;95024.66;4960008;28;20112;-60
2022/12/13 09:52:40;;;;;;;4.55;3.05;;;21.90;39.70;;;20.07;42.09;95023.84;4992548;28;20142;-63
2022/12/13 09:55:19;;;;;;;4.00;3.20;;;21.90;39.60;;;20.10;42.41;95017.16;4976615;28;20043;-63
2022/12/13 09:57:44;;;;;;;3.70;2.80;;;21.90;39.70;;;20.08;42.67;95029.97;4993863;28;20046;-63
2022/12/13 10:00:13;;;;;;;3.90;3.13;;;21.90;39.70;;;20.11;42.42;95030.22;4975698;28;20026;-63
2022/12/13 10:02:49;;;;;;;3.92;3.03;;;21.90;39.60;;;20.11;43.19;95019.56;4977482;28;20029;-63
2022/12/13 10:05:28;;;;;;;4.28;2.90;;;21.90;39.80;;;20.13;42.99;95016.59;4972977;28;20084;-63
2022/12/13 10:07:57;;;;;;;4.47;3.08;;;21.90;40.00;;;20.13;42.61;95017.41;4992709;28;20042;-62
2022/12/13 10:10:22;;;;;;;4.90;3.50;;;21.90;39.90;;;20.12;42.99;95013.13;4991594;28;20160;-62
2022/12/13 10:12:59;;;;;;;4.45;3.15;;;21.90;39.90;;;20.15;43.11;95017.97;4992443;28;20034;-63
2022/12/13 10:15:25;;;;;;;3.58;2.70;;;21.90;39.90;;;20.13;42.79;95012.06;4992012;28;20105;-63
2022/12/13 10:17:51;;;;;;;4.07;3.10;;;21.80;39.30;;;20.15;43.06;95015.28;4992407;28;20045;-62
2022/12/13 10:20:19;;;;;;;3.58;2.85;;;21.90;39.80;;;20.13;42.54;95012.06;4992814;28;20035;-62
2022/12/13 10:22:46;;;;;;;3.70;2.88;;;21.90;39.50;;;20.15;42.55;95007.28;4976241;28;20121;-62
2022/12/13 10:25:12;;;;;;;3.97;2.90;;;21.80;39.70;;;20.14;42.78;95008.34;4992284;28;20033;-62
2022/12/13 10:27:39;;;;;;;3.97;2.92;;;21.90;39.70;;;20.15;42.64;95001.13;4991696;28;20042;-62